Time;durP1;ratioP1;P1;durP2;ratioP2;P2;SDS_P1;SDS_P2;PMS_P1;PMS_P2;Temp;Humidity;BMP_temperature;BMP_pressure;BME280_temperature;BME280_humidity;BME280_pressure;Samples;Min_cycle;Max_cycle;Signal;HPM_P1;HPM_P2
2023/05/25 00:00:11;;;;;;;14.27;4.85;;;;;;;;;;5004568;28;92311;-83
2023/05/25 00:02:38;;;;;;;17.25;4.78;;;;;;;;;;5005536;28;92185;-83
2023/05/25 00:05:07;;;;;;;10.43;4.72;;;;;;;;;;5012099;28;93669;-83
2023/05/25 00:07:35;;;;;;;14.20;5.05;;;;;;;;;;5011018;28;94523;-83
2023/05/25 00:10:03;;;;;;;13.15;4.35;;;;;;;;;;5012231;28;92049;-84
2023/05/25 00:12:30;;;;;;;11.32;4.13;;;;;;;;;;5011901;28;91661;-83
2023/05/25 00:14:57;;;;;;;15.65;5.30;;;;;;;;;;5011452;28;94296;-83
2023/05/25 00:17:24;;;;;;;17.67;4.53;;;;;;;;;;5011470;28;92066;-83
2023/05/25 00:19:51;;;;;;;13.38;4.55;;;;;;;;;;5011030;28;94495;-84
2023/05/25 00:22:19;;;;;;;13.75;5.40;;;;;;;;;;5011335;28;92100;-83
2023/05/25 00:24:46;;;;;;;10.57;4.20;;;;;;;;;;5014080;28;92106;-83
2023/05/25 00:27:12;;;;;;;10.75;5.00;;;;;;;;;;5011006;28;94114;-83
2023/05/25 00:29:39;;;;;;;12.02;4.55;;;;;;;;;;4993696;28;91998;-83
2023/05/25 00:32:06;;;;;;;14.25;4.15;;;;;;;;;;5024415;28;92472;-83
2023/05/25 00:34:35;;;;;;;11.45;4.65;;;;;;;;;;5015403;28;92411;-83
2023/05/25 00:37:01;;;;;;;14.70;5.35;;;;;;;;;;5004327;28;92047;-84
2023/05/25 00:39:31;;;;;;;10.25;4.47;;;;;;;;;;5001964;28;92537;-83
2023/05/25 00:42:01;;;;;;;8.18;3.88;;;;;;;;;;5013280;28;93522;-83
2023/05/25 00:44:30;;;;;;;6.90;3.47;;;;;;;;;;5006865;28;94249;-83
2023/05/25 00:46:58;;;;;;;10.32;4.43;;;;;;;;;;5009250;28;92085;-83
2023/05/25 00:49:25;;;;;;;9.55;4.70;;;;;;;;;;5014832;28;93788;-83
2023/05/25 00:51:53;;;;;;;8.57;3.97;;;;;;;;;;5020011;28;92503;-84
2023/05/25 00:54:20;;;;;;;8.75;3.28;;;;;;;;;;5002177;28;92451;-83
2023/05/25 00:56:52;;;;;;;9.07;3.95;;;;;;;;;;5006400;28;92499;-83
2023/05/25 00:59:34;;;;;;;12.57;4.43;;;;;;;;;;5020456;28;94836;-84
2023/05/25 01:02:07;;;;;;;12.18;4.07;;;;;;;;;;5006750;28;93788;-84
2023/05/25 01:04:35;;;;;;;9.18;3.53;;;;;;;;;;5005532;28;93638;-84
2023/05/25 01:07:07;;;;;;;6.07;3.88;;;;;;;;;;5015231;28;91944;-83
2023/05/25 01:09:34;;;;;;;6.35;3.50;;;;;;;;;;5009776;28;94856;-84
2023/05/25 01:12:01;;;;;;;11.07;4.63;;;;;;;;;;5018862;28;93986;-83
2023/05/25 01:14:28;;;;;;;7.68;3.72;;;;;;;;;;4994875;28;92422;-83
2023/05/25 01:16:55;;;;;;;11.25;4.18;;;;;;;;;;4992097;28;93951;-83
2023/05/25 01:19:21;;;;;;;9.13;3.42;;;;;;;;;;4996399;28;92589;-84
2023/05/25 01:21:55;;;;;;;13.27;3.80;;;;;;;;;;4991771;28;94950;-83
2023/05/25 01:24:31;;;;;;;12.05;3.80;;;;;;;;;;5011766;28;94117;-83
2023/05/25 01:27:07;;;;;;;9.63;3.70;;;;;;;;;;5001273;28;92058;-84
2023/05/25 01:29:36;;;;;;;11.55;4.10;;;;;;;;;;4985820;28;93853;-84
2023/05/25 01:32:04;;;;;;;16.10;5.88;;;;;;;;;;5004367;28;94774;-84
2023/05/25 01:34:33;;;;;;;17.73;5.00;;;;;;;;;;5003186;28;97167;-83
2023/05/25 01:37:00;;;;;;;13.73;5.57;;;;;;;;;;5006178;28;95175;-83
2023/05/25 01:39:26;;;;;;;11.05;4.50;;;;;;;;;;5007851;28;92486;-83
2023/05/25 01:41:53;;;;;;;15.80;4.78;;;;;;;;;;4996350;28;95076;-83
2023/05/25 01:44:20;;;;;;;9.95;4.20;;;;;;;;;;5017993;28;92333;-83
2023/05/25 01:46:48;;;;;;;12.63;4.43;;;;;;;;;;5004252;28;94478;-83
2023/05/25 01:49:25;;;;;;;14.30;4.40;;;;;;;;;;5004133;28;93371;-83
2023/05/25 01:51:55;;;;;;;7.63;4.32;;;;;;;;;;5001151;28;94225;-83
2023/05/25 01:54:27;;;;;;;8.88;3.88;;;;;;;;;;4985101;28;93442;-83
2023/05/25 01:56:57;;;;;;;12.23;4.88;;;;;;;;;;5005682;28;92405;-83
2023/05/25 01:59:25;;;;;;;11.85;4.05;;;;;;;;;;5002234;28;94754;-83
2023/05/25 02:01:52;;;;;;;8.70;4.47;;;;;;;;;;5006671;28;94057;-83
2023/05/25 02:04:20;;;;;;;10.05;4.30;;;;;;;;;;4990165;28;95040;-84
2023/05/25 02:06:47;;;;;;;9.20;4.25;;;;;;;;;;4988817;28;95962;-83
2023/05/25 02:09:14;;;;;;;7.70;3.97;;;;;;;;;;4997622;28;95329;-83
2023/05/25 02:11:40;;;;;;;12.35;4.45;;;;;;;;;;5016502;28;94142;-83
2023/05/25 02:14:07;;;;;;;8.15;3.92;;;;;;;;;;5002997;28;92460;-84
2023/05/25 02:16:34;;;;;;;13.38;4.43;;;;;;;;;;5003226;28;93663;-83
2023/05/25 02:19:01;;;;;;;8.07;4.05;;;;;;;;;;5002923;28;93247;-83
2023/05/25 02:21:28;;;;;;;10.13;4.28;;;;;;;;;;5006171;28;92487;-83
2023/05/25 02:23:56;;;;;;;11.40;5.00;;;;;;;;;;4998122;28;94873;-83
2023/05/25 02:26:23;;;;;;;9.93;4.60;;;;;;;;;;5010295;28;92773;-84
2023/05/25 02:28:50;;;;;;;7.97;5.05;;;;;;;;;;5005383;28;94409;-83
2023/05/25 02:31:18;;;;;;;10.32;4.53;;;;;;;;;;5010250;28;93306;-83
2023/05/25 02:33:45;;;;;;;10.63;4.65;;;;;;;;;;4991254;28;93950;-83
2023/05/25 02:36:12;;;;;;;10.18;5.13;;;;;;;;;;4993327;28;92989;-83
2023/05/25 02:38:40;;;;;;;5.63;3.88;;;;;;;;;;4993923;28;95952;-83
2023/05/25 02:41:07;;;;;;;11.23;4.60;;;;;;;;;;4995704;28;93417;-83
2023/05/25 02:43:33;;;;;;;8.07;4.90;;;;;;;;;;4999207;28;93016;-83
2023/05/25 02:46:00;;;;;;;8.35;4.35;;;;;;;;;;4995649;28;95655;-83
2023/05/25 02:48:27;;;;;;;10.10;4.90;;;;;;;;;;4994022;28;95438;-83
2023/05/25 02:50:54;;;;;;;9.07;4.85;;;;;;;;;;4999108;28;96571;-83
2023/05/25 02:53:20;;;;;;;7.78;5.25;;;;;;;;;;4998461;28;94878;-83
2023/05/25 02:55:47;;;;;;;11.98;4.53;;;;;;;;;;4997683;28;92356;-83
2023/05/25 02:58:17;;;;;;;7.60;4.38;;;;;;;;;;5001542;28;94418;-83
2023/05/25 03:01:09;;;;;;;8.15;3.90;;;;;;;;;;5004955;28;94446;-83
2023/05/25 03:03:41;;;;;;;11.10;5.80;;;;;;;;;;4998566;28;94116;-83
2023/05/25 03:06:07;;;;;;;14.35;5.55;;;;;;;;;;5002205;28;93636;-83
2023/05/25 03:08:34;;;;;;;12.50;5.43;;;;;;;;;;4997371;28;92795;-83
2023/05/25 03:11:00;;;;;;;7.10;4.35;;;;;;;;;;4999455;28;92940;-83
2023/05/25 03:13:27;;;;;;;7.07;4.05;;;;;;;;;;4998495;28;94548;-83
2023/05/25 03:15:53;;;;;;;8.20;3.85;;;;;;;;;;4985849;28;94620;-83
2023/05/25 03:18:21;;;;;;;8.80;4.43;;;;;;;;;;5002709;28;94874;-83
2023/05/25 03:20:48;;;;;;;9.40;4.50;;;;;;;;;;4995277;28;94330;-83
2023/05/25 03:23:15;;;;;;;7.47;4.55;;;;;;;;;;5005389;28;92343;-83
2023/05/25 03:25:41;;;;;;;12.95;4.75;;;;;;;;;;4998819;28;95300;-83
2023/05/25 03:28:09;;;;;;;8.05;4.93;;;;;;;;;;5003518;28;93295;-83
2023/05/25 03:30:36;;;;;;;6.35;4.28;;;;;;;;;;5002551;28;95809;-83
2023/05/25 03:33:03;;;;;;;6.90;4.13;;;;;;;;;;5011300;28;95002;-83
2023/05/25 03:35:35;;;;;;;6.28;4.05;;;;;;;;;;5005152;28;94225;-83
2023/05/25 03:38:02;;;;;;;5.32;3.95;;;;;;;;;;4996090;28;95863;-83
2023/05/25 03:40:28;;;;;;;12.52;4.93;;;;;;;;;;4993449;28;96016;-83
2023/05/25 03:42:55;;;;;;;11.00;5.28;;;;;;;;;;4984448;28;93841;-83
2023/05/25 03:45:22;;;;;;;12.10;4.72;;;;;;;;;;4994446;28;94556;-83
2023/05/25 03:47:49;;;;;;;12.82;5.03;;;;;;;;;;4997722;28;94978;-83
2023/05/25 03:50:17;;;;;;;8.10;4.78;;;;;;;;;;5005252;28;95650;-84
2023/05/25 03:52:43;;;;;;;9.23;4.47;;;;;;;;;;5018396;28;96067;-83
2023/05/25 03:55:10;;;;;;;7.35;4.53;;;;;;;;;;5021152;28;94641;-83
2023/05/25 03:57:36;;;;;;;15.60;4.32;;;;;;;;;;5003496;28;93109;-83
2023/05/25 04:00:04;;;;;;;11.38;4.70;;;;;;;;;;5001328;28;92308;-83
2023/05/25 04:02:38;;;;;;;9.77;4.55;;;;;;;;;;5006311;28;95272;-83
2023/05/25 04:05:05;;;;;;;9.23;5.03;;;;;;;;;;5001279;28;95407;-83
2023/05/25 04:07:36;;;;;;;14.57;4.78;;;;;;;;;;5002842;28;95055;-83
2023/05/25 04:10:06;;;;;;;12.50;5.30;;;;;;;;;;4994228;28;92365;-83
2023/05/25 04:12:33;;;;;;;10.60;5.22;;;;;;;;;;4989131;28;93260;-83
2023/05/25 04:14:59;;;;;;;12.30;5.07;;;;;;;;;;5012150;28;95920;-83
2023/05/25 04:17:27;;;;;;;12.52;4.50;;;;;;;;;;5000793;28;93357;-83
2023/05/25 04:19:54;;;;;;;15.77;5.28;;;;;;;;;;4993493;28;93357;-83
2023/05/25 04:22:22;;;;;;;7.72;4.40;;;;;;;;;;5000454;28;92811;-83
2023/05/25 04:24:48;;;;;;;6.95;4.53;;;;;;;;;;5006122;28;94520;-83
2023/05/25 04:27:15;;;;;;;9.50;4.63;;;;;;;;;;5003809;28;98338;-83
2023/05/25 04:29:42;;;;;;;13.15;4.95;;;;;;;;;;5004364;28;94799;-83
2023/05/25 04:32:08;;;;;;;9.77;5.18;;;;;;;;;;5011536;28;92538;-83
2023/05/25 04:35:02;;;;;;;7.57;4.45;;;;;;;;;;4980724;28;92281;-83
2023/05/25 04:37:39;;;;;;;11.07;4.82;;;;;;;;;;4982456;28;94102;-83
2023/05/25 04:40:10;;;;;;;12.55;5.43;;;;;;;;;;4994185;28;93716;-83
2023/05/25 04:42:38;;;;;;;12.05;5.78;;;;;;;;;;4989951;28;92365;-83
2023/05/25 04:45:06;;;;;;;18.42;6.32;;;;;;;;;;4997924;28;94443;-83
2023/05/25 04:47:33;;;;;;;8.40;4.82;;;;;;;;;;4996782;28;94672;-83
2023/05/25 04:50:00;;;;;;;10.35;4.70;;;;;;;;;;4998892;28;92627;-83
2023/05/25 04:52:27;;;;;;;9.38;5.47;;;;;;;;;;4978615;28;95318;-83
2023/05/25 04:54:53;;;;;;;14.15;6.43;;;;;;;;;;5000016;28;93705;-83
2023/05/25 04:57:20;;;;;;;15.13;5.95;;;;;;;;;;4997004;28;93516;-83
2023/05/25 04:59:48;;;;;;;14.38;6.38;;;;;;;;;;4996387;28;94414;-83
2023/05/25 05:02:14;;;;;;;9.77;6.30;;;;;;;;;;4979761;28;94562;-83
2023/05/25 05:04:41;;;;;;;10.45;5.68;;;;;;;;;;4995803;28;94317;-83
2023/05/25 05:07:11;;;;;;;15.07;6.15;;;;;;;;;;4995745;28;94589;-83
2023/05/25 05:09:38;;;;;;;12.07;5.65;;;;;;;;;;4996254;28;94279;-83
2023/05/25 05:12:05;;;;;;;15.88;5.63;;;;;;;;;;4996102;28;95313;-83
2023/05/25 05:14:37;;;;;;;8.65;5.60;;;;;;;;;;5002071;28;94585;-83
2023/05/25 05:17:03;;;;;;;13.23;5.38;;;;;;;;;;4987658;28;94714;-83
2023/05/25 05:19:31;;;;;;;13.05;6.70;;;;;;;;;;5001739;28;93399;-83
2023/05/25 05:21:58;;;;;;;9.07;6.13;;;;;;;;;;5011759;28;94049;-83
2023/05/25 05:24:26;;;;;;;16.70;8.05;;;;;;;;;;5010083;28;92822;-83
2023/05/25 05:26:52;;;;;;;21.58;8.77;;;;;;;;;;4998421;28;96099;-83
2023/05/25 05:29:56;;;;;;;24.20;9.65;;;;;;;;;;5012939;28;93396;-83
2023/05/25 05:32:23;;;;;;;27.38;10.85;;;;;;;;;;4972985;28;94195;-83
2023/05/25 05:34:50;;;;;;;20.48;9.05;;;;;;;;;;5004927;28;93858;-83
2023/05/25 05:37:35;;;;;;;19.92;10.27;;;;;;;;;;5006612;28;93008;-83
2023/05/25 05:40:02;;;;;;;31.02;11.10;;;;;;;;;;5001685;28;94508;-83
2023/05/25 05:42:33;;;;;;;28.42;10.60;;;;;;;;;;4977730;28;95155;-83
2023/05/25 05:44:59;;;;;;;30.60;10.02;;;;;;;;;;4991511;28;96810;-83
2023/05/25 05:47:26;;;;;;;20.63;10.25;;;;;;;;;;5007952;28;93201;-83
2023/05/25 05:49:53;;;;;;;20.40;9.43;;;;;;;;;;4996389;28;94918;-82
2023/05/25 05:52:19;;;;;;;27.90;11.88;;;;;;;;;;5007223;28;94550;-83
2023/05/25 05:54:46;;;;;;;26.92;10.82;;;;;;;;;;5001820;28;94155;-83
2023/05/25 05:57:14;;;;;;;21.83;10.32;;;;;;;;;;4994704;28;94110;-83
2023/05/25 05:59:41;;;;;;;22.88;10.48;;;;;;;;;;4995169;28;94691;-83
2023/05/25 06:02:08;;;;;;;37.35;11.40;;;;;;;;;;4998809;28;94204;-83
2023/05/25 06:04:37;;;;;;;27.33;11.70;;;;;;;;;;5000014;28;92444;-82
2023/05/25 06:07:03;;;;;;;25.92;10.10;;;;;;;;;;4993059;28;98541;-83
2023/05/25 06:09:30;;;;;;;26.38;11.02;;;;;;;;;;4998663;28;92514;-82
2023/05/25 06:11:58;;;;;;;34.33;11.23;;;;;;;;;;4996270;28;94333;-83
2023/05/25 06:14:25;;;;;;;21.50;10.48;;;;;;;;;;4980041;28;94837;-82
2023/05/25 06:16:56;;;;;;;27.10;10.25;;;;;;;;;;4968164;28;92346;-82
2023/05/25 06:19:23;;;;;;;27.13;10.70;;;;;;;;;;4995979;28;92453;-82
2023/05/25 06:21:50;;;;;;;21.35;9.98;;;;;;;;;;4995242;28;94811;-82
2023/05/25 06:24:19;;;;;;;22.23;9.85;;;;;;;;;;4988348;28;92194;-83
2023/05/25 06:26:46;;;;;;;21.52;8.48;;;;;;;;;;5003724;28;94650;-82
2023/05/25 06:29:13;;;;;;;23.25;9.15;;;;;;;;;;4988529;28;93098;-82
2023/05/25 06:31:42;;;;;;;26.33;9.07;;;;;;;;;;5008910;28;94794;-84
2023/05/25 06:34:09;;;;;;;16.08;8.15;;;;;;;;;;4993864;28;95692;-84
2023/05/25 06:36:36;;;;;;;22.63;8.55;;;;;;;;;;5005169;28;94029;-84
2023/05/25 06:39:02;;;;;;;18.02;8.13;;;;;;;;;;4996529;28;94624;-84
2023/05/25 06:41:29;;;;;;;19.45;9.02;;;;;;;;;;4996792;28;92388;-84
2023/05/25 06:43:56;;;;;;;25.17;8.85;;;;;;;;;;5003638;28;94583;-84
2023/05/25 06:46:29;;;;;;;15.60;7.75;;;;;;;;;;4994100;28;94450;-85
2023/05/25 06:49:00;;;;;;;16.67;7.97;;;;;;;;;;4996289;28;93752;-84
2023/05/25 06:51:26;;;;;;;20.65;8.50;;;;;;;;;;5008954;28;92395;-84
2023/05/25 06:53:56;;;;;;;17.63;8.25;;;;;;;;;;4997359;28;94823;-84
2023/05/25 06:56:23;;;;;;;21.48;8.23;;;;;;;;;;4995300;28;94892;-84
2023/05/25 06:58:49;;;;;;;20.70;7.88;;;;;;;;;;5002830;28;97809;-84
2023/05/25 07:01:16;;;;;;;24.67;10.15;;;;;;;;;;4996259;28;95886;-85
2023/05/25 07:03:42;;;;;;;19.80;7.90;;;;;;;;;;4996998;28;92498;-85
2023/05/25 07:06:11;;;;;;;16.35;7.47;;;;;;;;;;4998996;28;94618;-84
2023/05/25 07:08:37;;;;;;;19.77;7.63;;;;;;;;;;4999772;28;94276;-84
2023/05/25 07:11:04;;;;;;;21.25;7.55;;;;;;;;;;5003631;28;93658;-84
2023/05/25 07:13:30;;;;;;;23.10;7.55;;;;;;;;;;5004031;28;93855;-84
2023/05/25 07:15:57;;;;;;;18.20;6.45;;;;;;;;;;4994963;28;92577;-84
2023/05/25 07:18:23;;;;;;;17.23;6.85;;;;;;;;;;5002657;28;92340;-85
2023/05/25 07:20:50;;;;;;;13.20;6.35;;;;;;;;;;5000394;28;95596;-84
2023/05/25 07:23:16;;;;;;;17.90;5.68;;;;;;;;;;4999382;28;92195;-84
2023/05/25 07:25:43;;;;;;;16.40;6.63;;;;;;;;;;5000647;28;92784;-84
2023/05/25 07:28:10;;;;;;;17.33;7.07;;;;;;;;;;5005605;28;92301;-84
2023/05/25 07:30:36;;;;;;;27.00;7.97;;;;;;;;;;5000569;28;94406;-84
2023/05/25 07:33:04;;;;;;;17.23;6.85;;;;;;;;;;5008065;28;94847;-85
2023/05/25 07:35:30;;;;;;;21.88;7.22;;;;;;;;;;5003516;28;94122;-85
2023/05/25 07:37:58;;;;;;;20.08;6.75;;;;;;;;;;4998141;28;94909;-85
2023/05/25 07:40:25;;;;;;;15.73;6.47;;;;;;;;;;5002728;28;92384;-85
2023/05/25 07:42:52;;;;;;;19.05;6.03;;;;;;;;;;4972713;28;95204;-85
2023/05/25 07:45:19;;;;;;;17.85;5.95;;;;;;;;;;5000791;28;94415;-85
2023/05/25 07:47:46;;;;;;;19.38;7.25;;;;;;;;;;4999115;28;94903;-83
2023/05/25 07:50:13;;;;;;;22.30;6.72;;;;;;;;;;5004304;28;92529;-83
2023/05/25 07:52:40;;;;;;;18.35;7.18;;;;;;;;;;4998848;28;94607;-83
2023/05/25 07:55:06;;;;;;;18.75;6.38;;;;;;;;;;4998364;28;94314;-83
2023/05/25 07:57:33;;;;;;;17.55;6.13;;;;;;;;;;4982744;28;94481;-83
2023/05/25 08:00:00;;;;;;;20.15;6.90;;;;;;;;;;5000787;28;95695;-84
2023/05/25 08:02:27;;;;;;;18.33;7.15;;;;;;;;;;5004535;28;91999;-84
2023/05/25 08:04:53;;;;;;;20.10;7.53;;;;;;;;;;5002628;28;92304;-83
2023/05/25 08:07:20;;;;;;;15.45;6.65;;;;;;;;;;5000181;28;95025;-84
2023/05/25 08:09:46;;;;;;;18.67;7.63;;;;;;;;;;4998358;28;94896;-84
2023/05/25 08:12:13;;;;;;;19.95;7.13;;;;;;;;;;5004488;28;96612;-84
2023/05/25 08:14:59;;;;;;;16.70;5.85;;;;;;;;;;4998827;28;92652;-84
2023/05/25 08:17:26;;;;;;;17.73;6.22;;;;;;;;;;5006610;28;92414;-84
2023/05/25 08:19:53;;;;;;;22.42;7.15;;;;;;;;;;5011634;28;94659;-83
2023/05/25 08:22:19;;;;;;;14.73;6.00;;;;;;;;;;4996198;28;95034;-84
2023/05/25 08:24:46;;;;;;;18.02;6.35;;;;;;;;;;5013108;28;93187;-84
2023/05/25 08:27:12;;;;;;;22.58;6.13;;;;;;;;;;5013844;28;91983;-83
2023/05/25 08:29:39;;;;;;;13.02;5.18;;;;;;;;;;5010838;28;92481;-83
2023/05/25 08:32:06;;;;;;;14.90;6.07;;;;;;;;;;5012135;28;92519;-83
2023/05/25 08:34:33;;;;;;;20.23;5.18;;;;;;;;;;4996603;28;95826;-84
2023/05/25 08:36:59;;;;;;;15.77;5.75;;;;;;;;;;4998968;28;96779;-84
2023/05/25 08:39:26;;;;;;;18.77;5.97;;;;;;;;;;5010967;28;92129;-83
2023/05/25 08:41:52;;;;;;;13.48;4.38;;;;;;;;;;4996337;28;96195;-84
2023/05/25 08:44:19;;;;;;;18.08;4.85;;;;;;;;;;4998025;28;93562;-84
2023/05/25 08:46:47;;;;;;;15.77;4.90;;;;;;;;;;5001347;28;93014;-83
2023/05/25 08:49:14;;;;;;;12.00;4.20;;;;;;;;;;4999828;28;92423;-84
2023/05/25 08:51:46;;;;;;;14.73;4.63;;;;;;;;;;4999194;28;94601;-84
2023/05/25 08:54:26;;;;;;;16.92;3.88;;;;;;;;;;5004408;28;92323;-85
2023/05/25 08:57:16;;;;;;;12.70;3.92;;;;;;;;;;4997134;28;94075;-84
2023/05/25 08:59:48;;;;;;;12.70;4.15;;;;;;;;;;4995453;28;96783;-85
2023/05/25 09:02:27;;;;;;;11.75;3.95;;;;;;;;;;4994134;28;94515;-85
2023/05/25 09:04:54;;;;;;;13.75;4.15;;;;;;;;;;5005090;28;92331;-85
2023/05/25 09:07:21;;;;;;;19.75;5.50;;;;;;;;;;4996541;28;92434;-84
2023/05/25 09:09:49;;;;;;;20.73;4.18;;;;;;;;;;4999105;28;92993;-85
2023/05/25 09:12:19;;;;;;;13.55;4.18;;;;;;;;;;5001023;28;92438;-85
2023/05/25 09:14:46;;;;;;;15.02;4.05;;;;;;;;;;5003547;28;92836;-85
2023/05/25 09:17:14;;;;;;;14.95;4.60;;;;;;;;;;5004836;28;93282;-85
2023/05/25 09:19:41;;;;;;;24.08;4.32;;;;;;;;;;5000653;28;94541;-85
2023/05/25 09:22:09;;;;;;;18.55;4.30;;;;;;;;;;4991489;28;95278;-85
2023/05/25 09:24:42;;;;;;;15.60;3.85;;;;;;;;;;4998429;28;94909;-84
2023/05/25 09:27:10;;;;;;;17.37;3.53;;;;;;;;;;5007052;28;92291;-84
2023/05/25 09:29:37;;;;;;;18.95;4.95;;;;;;;;;;5008840;28;94599;-85
2023/05/25 09:32:07;;;;;;;10.65;3.85;;;;;;;;;;5004083;28;92960;-85
2023/05/25 09:34:34;;;;;;;15.88;3.15;;;;;;;;;;5000837;28;96698;-84
2023/05/25 09:37:09;;;;;;;14.63;3.70;;;;;;;;;;4999110;28;92230;-85
2023/05/25 09:39:36;;;;;;;14.48;4.18;;;;;;;;;;4983513;28;95457;-85
2023/05/25 09:42:04;;;;;;;14.23;3.63;;;;;;;;;;5006415;28;92089;-85
2023/05/25 09:44:31;;;;;;;17.83;3.80;;;;;;;;;;5001823;28;92447;-84
2023/05/25 09:46:58;;;;;;;8.05;2.88;;;;;;;;;;4987469;28;95538;-84
2023/05/25 09:49:25;;;;;;;10.75;3.58;;;;;;;;;;5001538;28;94892;-84
2023/05/25 09:51:51;;;;;;;12.35;3.83;;;;;;;;;;5000744;28;95233;-85
2023/05/25 09:54:21;;;;;;;8.48;3.03;;;;;;;;;;4996252;28;94598;-85
2023/05/25 09:56:48;;;;;;;11.65;3.30;;;;;;;;;;4988319;28;94714;-84
2023/05/25 09:59:14;;;;;;;11.52;3.30;;;;;;;;;;5003342;28;92407;-84
2023/05/25 10:01:43;;;;;;;8.27;3.13;;;;;;;;;;5012352;28;92220;-85
2023/05/25 10:04:09;;;;;;;7.35;3.13;;;;;;;;;;5007751;28;94478;-84
2023/05/25 10:06:37;;;;;;;11.95;3.58;;;;;;;;;;5023768;28;91584;-85
2023/05/25 10:09:05;;;;;;;11.98;3.55;;;;;;;;;;5010821;28;94209;-85
2023/05/25 10:11:33;;;;;;;8.15;3.63;;;;;;;;;;4996242;28;93877;-85
2023/05/25 10:14:03;;;;;;;10.38;3.58;;;;;;;;;;5012159;28;96741;-85
2023/05/25 10:16:31;;;;;;;12.75;3.50;;;;;;;;;;5014319;28;93668;-85
2023/05/25 10:19:16;;;;;;;15.40;3.28;;;;;;;;;;5015581;28;92125;-85
2023/05/25 10:21:50;;;;;;;11.80;3.20;;;;;;;;;;5010809;28;92441;-85
2023/05/25 10:24:37;;;;;;;11.13;3.30;;;;;;;;;;5005580;28;92910;-86
2023/05/25 10:27:04;;;;;;;6.97;2.35;;;;;;;;;;5004923;28;94699;-86
2023/05/25 10:29:51;;;;;;;5.82;2.58;;;;;;;;;;5013151;28;91947;-85
2023/05/25 10:32:17;;;;;;;6.13;3.22;;;;;;;;;;5008625;28;94316;-84
2023/05/25 10:34:45;;;;;;;17.98;3.20;;;;;;;;;;5008506;28;95068;-85
2023/05/25 10:37:13;;;;;;;12.20;2.95;;;;;;;;;;5008598;28;91817;-85
2023/05/25 10:39:41;;;;;;;12.27;3.28;;;;;;;;;;5007009;28;94799;-85
2023/05/25 10:42:07;;;;;;;6.45;2.65;;;;;;;;;;5003664;28;92305;-84
2023/05/25 10:44:34;;;;;;;7.35;2.85;;;;;;;;;;5013222;28;91967;-84
2023/05/25 10:47:02;;;;;;;6.47;2.97;;;;;;;;;;5007896;28;92506;-83
2023/05/25 10:49:34;;;;;;;9.45;3.17;;;;;;;;;;5008303;28;94286;-84
2023/05/25 10:52:02;;;;;;;13.32;3.05;;;;;;;;;;5009015;28;94315;-84
2023/05/25 10:54:32;;;;;;;12.60;3.28;;;;;;;;;;4991616;28;94400;-85
2023/05/25 10:57:08;;;;;;;6.45;2.78;;;;;;;;;;5018932;28;95282;-85
2023/05/25 10:59:39;;;;;;;5.85;3.00;;;;;;;;;;5007454;28;92898;-84
2023/05/25 11:02:06;;;;;;;5.65;2.67;;;;;;;;;;5003129;28;92539;-84
2023/05/25 11:04:36;;;;;;;6.63;2.20;;;;;;;;;;5014658;28;95269;-84
2023/05/25 11:07:04;;;;;;;5.53;2.47;;;;;;;;;;5008144;28;94177;-84
2023/05/25 11:09:31;;;;;;;9.82;2.90;;;;;;;;;;5006497;28;96018;-85
2023/05/25 11:12:00;;;;;;;9.77;3.08;;;;;;;;;;5010293;28;92244;-84
2023/05/25 11:14:28;;;;;;;10.82;2.60;;;;;;;;;;5006806;28;92314;-85
2023/05/25 11:17:14;;;;;;;8.93;2.75;;;;;;;;;;5010452;28;92303;-85
2023/05/25 11:19:54;;;;;;;9.20;3.05;;;;;;;;;;4980710;28;93478;-85
2023/05/25 11:22:29;;;;;;;9.20;2.60;;;;;;;;;;5005897;28;92228;-85
2023/05/25 11:24:56;;;;;;;7.97;2.88;;;;;;;;;;5013161;28;94621;-85
2023/05/25 11:27:27;;;;;;;11.30;4.07;;;;;;;;;;5016185;28;92275;-85
2023/05/25 11:29:55;;;;;;;8.70;3.13;;;;;;;;;;5010950;28;97341;-85
2023/05/25 11:32:22;;;;;;;14.02;3.58;;;;;;;;;;4997754;28;94155;-85
2023/05/25 11:34:52;;;;;;;10.75;3.60;;;;;;;;;;5005273;28;93179;-85
2023/05/25 11:37:20;;;;;;;13.77;3.75;;;;;;;;;;5006765;28;92319;-84
2023/05/25 11:39:53;;;;;;;13.95;4.25;;;;;;;;;;5004961;28;94598;-84
2023/05/25 11:42:20;;;;;;;16.27;3.88;;;;;;;;;;5009685;28;95952;-84
2023/05/25 11:44:47;;;;;;;11.60;3.42;;;;;;;;;;4989658;28;96045;-85
2023/05/25 11:47:17;;;;;;;11.15;4.13;;;;;;;;;;5006976;28;92213;-85
2023/05/25 11:49:45;;;;;;;12.65;4.00;;;;;;;;;;5004193;28;94422;-85
2023/05/25 11:52:13;;;;;;;10.20;2.53;;;;;;;;;;5010478;28;92449;-83
2023/05/25 11:54:42;;;;;;;13.93;3.42;;;;;;;;;;5000241;28;95612;-83
2023/05/25 11:57:16;;;;;;;13.38;4.35;;;;;;;;;;4994844;28;92465;-85
2023/05/25 11:59:49;;;;;;;10.35;3.67;;;;;;;;;;4998780;28;92483;-83
2023/05/25 12:02:16;;;;;;;10.48;2.97;;;;;;;;;;5005463;28;95150;-84
2023/05/25 12:04:52;;;;;;;14.30;3.58;;;;;;;;;;5006823;28;94558;-84
2023/05/25 12:07:19;;;;;;;16.73;3.25;;;;;;;;;;5002097;28;94010;-83
2023/05/25 12:09:46;;;;;;;9.70;3.42;;;;;;;;;;5008128;28;92534;-84
2023/05/25 12:12:12;;;;;;;14.38;3.55;;;;;;;;;;5023198;28;91672;-84
2023/05/25 12:14:45;;;;;;;9.55;3.05;;;;;;;;;;5023105;28;92957;-86
2023/05/25 12:17:12;;;;;;;10.52;2.70;;;;;;;;;;5027460;28;92329;-84
2023/05/25 12:19:39;;;;;;;7.55;2.83;;;;;;;;;;5015201;28;94222;-84
2023/05/25 12:22:06;;;;;;;9.50;3.13;;;;;;;;;;4986667;28;94180;-84
2023/05/25 12:24:32;;;;;;;8.95;2.80;;;;;;;;;;4978817;28;94578;-83
2023/05/25 12:27:01;;;;;;;10.93;2.53;;;;;;;;;;4997612;28;95762;-84
2023/05/25 12:29:27;;;;;;;11.10;3.00;;;;;;;;;;4990143;28;92495;-84
2023/05/25 12:32:01;;;;;;;13.05;2.90;;;;;;;;;;4995258;28;92380;-84
2023/05/25 12:34:27;;;;;;;12.63;3.38;;;;;;;;;;4982953;28;92915;-84
2023/05/25 12:36:55;;;;;;;12.57;3.78;;;;;;;;;;4996969;28;91975;-85
2023/05/25 12:39:27;;;;;;;9.38;2.70;;;;;;;;;;4992707;28;93090;-84
2023/05/25 12:41:55;;;;;;;18.05;3.95;;;;;;;;;;4993381;28;94368;-84
2023/05/25 12:44:24;;;;;;;13.10;3.92;;;;;;;;;;4997506;28;95179;-84
2023/05/25 12:46:51;;;;;;;20.20;3.75;;;;;;;;;;5013168;28;94034;-84
2023/05/25 12:49:28;;;;;;;14.48;3.95;;;;;;;;;;5002641;28;92358;-84
2023/05/25 12:51:55;;;;;;;15.13;3.67;;;;;;;;;;4997575;28;93768;-84
2023/05/25 12:54:43;;;;;;;9.45;3.33;;;;;;;;;;4998000;28;95340;-84
2023/05/25 12:57:11;;;;;;;16.70;3.55;;;;;;;;;;5004844;28;92483;-83
2023/05/25 12:59:38;;;;;;;12.75;2.88;;;;;;;;;;5000814;28;92372;-84
2023/05/25 13:02:06;;;;;;;19.92;4.05;;;;;;;;;;5004086;28;92051;-84
2023/05/25 13:04:35;;;;;;;12.32;3.55;;;;;;;;;;4999324;28;92397;-84
2023/05/25 13:07:02;;;;;;;17.38;3.90;;;;;;;;;;4998220;28;92335;-84
2023/05/25 13:09:28;;;;;;;17.73;4.30;;;;;;;;;;4996936;28;96176;-84
2023/05/25 13:11:56;;;;;;;16.17;3.90;;;;;;;;;;4990634;28;96285;-84
2023/05/25 13:14:23;;;;;;;17.02;4.40;;;;;;;;;;4991423;28;93889;-83
2023/05/25 13:16:50;;;;;;;17.33;3.55;;;;;;;;;;4997045;28;94250;-84
2023/05/25 13:19:17;;;;;;;15.38;4.47;;;;;;;;;;4999501;28;94245;-84
2023/05/25 13:21:44;;;;;;;23.58;4.07;;;;;;;;;;4998218;28;92948;-84
2023/05/25 13:24:11;;;;;;;25.95;5.70;;;;;;;;;;4997919;28;92428;-84
2023/05/25 13:26:38;;;;;;;13.10;3.90;;;;;;;;;;4996021;28;94497;-84
2023/05/25 13:29:04;;;;;;;16.38;4.22;;;;;;;;;;4995579;28;96011;-84
2023/05/25 13:31:32;;;;;;;23.67;4.75;;;;;;;;;;4995618;28;92862;-84
2023/05/25 13:33:58;;;;;;;22.08;5.57;;;;;;;;;;4996293;28;94854;-84
2023/05/25 13:36:25;;;;;;;23.15;5.22;;;;;;;;;;4997838;28;93292;-84
2023/05/25 13:38:51;;;;;;;30.33;5.53;;;;;;;;;;4995668;28;93090;-84
2023/05/25 13:41:18;;;;;;;21.10;5.07;;;;;;;;;;5000134;28;92374;-84
2023/05/25 13:43:45;;;;;;;27.38;5.57;;;;;;;;;;4997102;28;92417;-84
2023/05/25 13:46:11;;;;;;;22.67;5.30;;;;;;;;;;4996418;28;94555;-84
2023/05/25 13:48:58;;;;;;;20.83;4.43;;;;;;;;;;4996355;28;92453;-85
2023/05/25 13:51:25;;;;;;;21.80;5.13;;;;;;;;;;4995641;28;94849;-84
2023/05/25 13:53:52;;;;;;;26.42;4.93;;;;;;;;;;4995795;28;93699;-84
2023/05/25 13:56:18;;;;;;;16.80;4.80;;;;;;;;;;4994260;28;93067;-84
2023/05/25 13:58:45;;;;;;;21.30;4.72;;;;;;;;;;4994228;28;94537;-84
2023/05/25 14:01:12;;;;;;;17.17;3.92;;;;;;;;;;4994865;28;96021;-84
2023/05/25 14:03:39;;;;;;;14.23;4.18;;;;;;;;;;5000015;28;93185;-84
2023/05/25 14:06:06;;;;;;;26.60;5.47;;;;;;;;;;4987318;28;92636;-85
2023/05/25 14:08:32;;;;;;;20.80;5.13;;;;;;;;;;4987829;28;96252;-84
2023/05/25 14:10:59;;;;;;;23.40;6.03;;;;;;;;;;5006127;28;92494;-85
2023/05/25 14:13:26;;;;;;;25.88;5.82;;;;;;;;;;5007295;28;92057;-85
2023/05/25 14:15:52;;;;;;;19.08;5.10;;;;;;;;;;5002935;28;91810;-85
2023/05/25 14:18:22;;;;;;;23.48;5.13;;;;;;;;;;4997118;28;92067;-85
2023/05/25 14:20:49;;;;;;;22.02;4.80;;;;;;;;;;5007578;28;92440;-85
2023/05/25 14:23:17;;;;;;;26.13;5.38;;;;;;;;;;4986554;28;94854;-85
2023/05/25 14:25:45;;;;;;;22.50;4.88;;;;;;;;;;4997657;28;94620;-85
2023/05/25 14:28:12;;;;;;;23.48;4.75;;;;;;;;;;4994625;28;92539;-86
2023/05/25 14:30:39;;;;;;;28.27;5.68;;;;;;;;;;4995816;28;92494;-85
2023/05/25 14:33:06;;;;;;;21.65;4.93;;;;;;;;;;4992465;28;94680;-85
2023/05/25 14:35:33;;;;;;;18.73;5.07;;;;;;;;;;4994652;28;93078;-85
2023/05/25 14:38:00;;;;;;;23.00;5.10;;;;;;;;;;4994758;28;92614;-85
2023/05/25 14:40:26;;;;;;;20.35;5.20;;;;;;;;;;5003901;28;92224;-85